Time;durP1;ratioP1;P1;durP2;ratioP2;P2;SDS_P1;SDS_P2;PMS_P1;PMS_P2;Temp;Humidity;BMP_temperature;BMP_pressure;BME280_temperature;BME280_humidity;BME280_pressure;Samples;Min_cycle;Max_cycle;Signal;HPM_P1;HPM_P2
2022/04/30 00:00:04;;;;;;;;;;;14.10;99.90;14.40;100168.00;;;;343238;28;92050;-81
2022/04/30 00:00:16;;;;;;;;;;;14.10;99.90;14.40;100166.00;;;;344168;28;94747;-80
2022/04/30 00:00:31;;;;;;;;;;;14.10;99.90;14.40;100161.00;;;;345552;28;91040;-81
2022/04/30 00:00:43;;;;;;;;;;;14.10;99.90;14.30;100172.00;;;;345697;28;93149;-81
2022/04/30 00:00:58;;;;;;;;;;;14.10;99.90;14.40;100174.00;;;;346895;28;90851;-81
2022/04/30 00:01:10;;;;;;;;;;;14.10;99.90;14.40;100164.00;;;;343007;28;93447;-81
2022/04/30 00:01:22;;;;;;;;;;;14.10;99.90;14.30;100172.00;;;;341323;28;91902;-81
2022/04/30 00:01:34;;;;;;;;;;;14.10;99.90;14.30;100162.00;;;;342703;28;93462;-81
2022/04/30 00:01:46;;;;;;;;;;;14.10;99.90;14.30;100165.00;;;;344141;28;91809;-81
2022/04/30 00:01:58;;;;;;;;;;;14.10;99.90;14.40;100164.00;;;;345759;28;93699;-81
2022/04/30 00:02:11;;;;;;;;;;;14.10;99.90;14.30;100165.00;;;;344287;28;92145;-81
2022/04/30 00:02:23;;;;;;;;;;;14.10;99.90;14.30;100169.00;;;;343860;28;92532;-81
2022/04/30 00:02:35;;;;;;;;;;;14.10;99.90;14.40;100172.00;;;;342682;28;91195;-81
2022/04/30 00:02:47;;;;;;;;;;;14.10;99.90;14.40;100168.00;;;;342975;28;93109;-81
2022/04/30 00:02:59;;;;;;;;;;;14.10;99.90;14.40;100167.00;;;;345540;28;91903;-81
2022/04/30 00:03:11;;;;;;;;;;;14.10;99.90;14.30;100173.00;;;;344638;28;94765;-81
2022/04/30 00:03:26;;;;;;;;;;;14.10;99.90;14.30;100171.00;;;;343956;28;91919;-81
2022/04/30 00:03:38;;;;;;;;;;;14.10;99.90;14.40;100167.00;;;;345682;28;93985;-81
2022/04/30 00:03:50;;;;;;;;;;;14.10;99.90;14.40;100169.00;;;;343995;28;91904;-81
2022/04/30 00:04:02;;;;;;;;;;;14.10;99.90;14.40;100168.00;;;;344097;28;93354;-81
2022/04/30 00:04:14;;;;;;;;;;;14.10;99.90;14.40;100170.00;;;;342734;28;91935;-81
2022/04/30 00:04:25;;;;;;;;;;;14.10;99.90;14.40;100166.00;;;;343070;28;93745;-80
2022/04/30 00:04:41;;;;;;;;;;;14.10;99.90;14.40;100165.00;;;;345441;28;91115;-81
2022/04/30 00:04:53;;;;;;;;;;;14.10;99.90;14.40;100166.00;;;;345755;28;92692;-81
2022/04/30 00:29:41;;;;;;;;;;;13.90;99.90;14.10;100168.00;;;;348704;27;90834;-81
2022/04/30 00:29:54;;;;;;;;;;;13.90;99.90;14.20;100167.00;;;;348419;27;91222;-81
2022/04/30 00:30:06;;;;;;;;;;;13.90;99.90;14.10;100160.00;;;;347098;27;93810;-81
2022/04/30 00:30:20;;;;;;;;;;;13.90;99.90;14.10;100160.00;;;;344339;28;91995;-81
2022/04/30 00:30:32;;;;;;;;;;;13.90;99.90;14.10;100165.00;;;;343234;28;92102;-81
2022/04/30 00:30:44;;;;;;;;;;;13.90;99.90;14.10;100157.00;;;;344287;28;91882;-81
2022/04/30 00:30:56;;;;;;;;;;;13.90;99.90;14.20;100161.00;;;;347057;28;94892;-81
2022/04/30 00:31:09;;;;;;;;;;;13.90;99.90;14.20;100162.00;;;;345810;28;91125;-80
2022/04/30 00:31:21;;;;;;;;;;;13.90;99.90;14.10;100164.00;;;;347131;28;94895;-80
2022/04/30 00:31:33;;;;;;;;;;;13.90;99.90;14.20;100161.00;;;;347025;28;92024;-81
2022/04/30 00:31:45;;;;;;;;;;;13.90;99.90;14.20;100162.00;;;;344581;28;93837;-81
2022/04/30 00:32:00;;;;;;;;;;;13.90;99.90;14.20;100163.00;;;;345758;28;91076;-81
2022/04/30 00:32:12;;;;;;;;;;;13.90;99.90;14.20;100153.00;;;;346415;28;92957;-81
2022/04/30 00:32:24;;;;;;;;;;;13.90;99.90;14.20;100166.00;;;;344638;28;91990;-81
2022/04/30 00:32:36;;;;;;;;;;;13.90;99.90;14.30;100155.00;;;;341273;28;93506;-81
2022/04/30 00:32:48;;;;;;;;;;;13.90;99.90;14.20;100168.00;;;;344594;28;91931;-81
2022/04/30 00:32:59;;;;;;;;;;;13.90;99.90;14.20;100167.00;;;;345825;28;93476;-81
2022/04/30 00:33:11;;;;;;;;;;;13.90;99.90;14.20;100156.00;;;;345203;28;92012;-81
2022/04/30 00:33:23;;;;;;;;;;;13.90;99.90;14.20;100161.00;;;;344210;28;93808;-81
2022/04/30 00:33:35;;;;;;;;;;;13.90;99.90;14.10;100156.00;;;;342901;28;92057;-81
2022/04/30 00:33:48;;;;;;;;;;;13.90;99.90;14.20;100164.00;;;;345986;28;93524;-81
2022/04/30 00:34:01;;;;;;;;;;;13.90;99.90;14.20;100165.00;;;;344356;28;90476;-81
2022/04/30 00:34:13;;;;;;;;;;;13.90;99.90;14.20;100159.00;;;;345979;28;92887;-81
2022/04/30 00:34:24;;;;;;;;;;;13.90;99.90;14.20;100160.00;;;;347116;28;90989;-81
2022/04/30 00:34:36;;;;;;;;;;;13.90;99.90;14.30;100163.00;;;;344415;28;93832;-81
2022/04/30 00:34:48;;;;;;;;;;;13.90;99.90;14.20;100160.00;;;;345567;28;92505;-81
2022/04/30 00:35:00;;;;;;;;;;;13.90;99.90;14.30;100163.00;;;;345940;28;93899;-81
2022/04/30 00:35:13;;;;;;;;;;;13.90;99.90;14.20;100161.00;;;;346699;28;91900;-80
2022/04/30 00:35:25;;;;;;;;;;;13.90;99.90;14.20;100165.00;;;;343217;28;93594;-81
2022/04/30 00:35:37;;;;;;;;;;;13.90;99.90;14.20;100164.00;;;;344163;28;92043;-81
2022/04/30 00:35:48;;;;;;;;;;;13.90;99.90;14.10;100155.00;;;;344566;28;93319;-81
2022/04/30 00:36:00;;;;;;;;;;;13.90;99.90;14.20;100158.00;;;;340278;28;91109;-81
2022/04/30 00:36:12;;;;;;;;;;;13.90;99.90;14.20;100168.00;;;;344183;28;92788;-81
2022/04/30 00:36:24;;;;;;;;;;;13.90;99.90;14.10;100157.00;;;;344194;28;91753;-81
2022/04/30 00:36:36;;;;;;;;;;;13.90;99.90;14.10;100161.00;;;;340260;28;93532;-81
2022/04/30 00:36:48;;;;;;;;;;;13.90;99.90;14.20;100159.00;;;;341532;28;92086;-81
2022/04/30 00:37:03;;;;;;;;;;;13.90;99.90;14.20;100160.00;;;;343203;28;92893;-80
2022/04/30 00:37:15;;;;;;;;;;;13.90;99.90;14.20;100157.00;;;;344322;28;91039;-81
2022/04/30 00:37:27;;;;;;;;;;;13.90;99.90;14.20;100162.00;;;;344481;28;93862;-81
2022/04/30 00:37:39;;;;;;;;;;;13.90;99.90;14.00;100162.00;;;;345599;28;91606;-81
2022/04/30 00:37:51;;;;;;;;;;;13.90;99.90;14.00;100157.00;;;;346041;28;93630;-81
2022/04/30 00:38:03;;;;;;;;;;;13.90;99.90;14.10;100160.00;;;;342763;28;91221;-81
2022/04/30 00:38:15;;;;;;;;;;;13.90;99.90;14.00;100161.00;;;;344960;28;92734;-81
2022/04/30 00:38:27;;;;;;;;;;;13.90;99.90;14.00;100154.00;;;;345282;28;92069;-81
2022/04/30 00:38:38;;;;;;;;;;;13.80;99.90;14.00;100169.00;;;;345323;28;93340;-81
2022/04/30 00:38:50;;;;;;;;;;;13.80;99.90;14.10;100157.00;;;;345675;28;92113;-81
2022/04/30 00:39:02;;;;;;;;;;;13.90;99.90;14.10;100157.00;;;;345832;28;93661;-81
2022/04/30 00:39:14;;;;;;;;;;;13.80;99.90;14.10;100150.00;;;;344005;28;92513;-81
2022/04/30 00:39:27;;;;;;;;;;;13.80;99.90;14.10;100152.00;;;;344458;28;93367;-82
2022/04/30 00:39:39;;;;;;;;;;;13.80;99.90;14.10;100156.00;;;;344299;28;91956;-81
2022/04/30 00:39:51;;;;;;;;;;;13.80;99.90;14.00;100159.00;;;;344618;28;93592;-81
2022/04/30 00:40:03;;;;;;;;;;;13.80;99.90;13.90;100160.00;;;;345743;28;91105;-81
2022/04/30 00:40:14;;;;;;;;;;;13.80;99.90;13.90;100151.00;;;;340461;28;92795;-81
2022/04/30 00:40:26;;;;;;;;;;;13.80;99.90;13.90;100153.00;;;;344317;28;91951;-81
2022/04/30 00:40:38;;;;;;;;;;;13.80;99.90;13.90;100155.00;;;;344468;28;93708;-81
2022/04/30 00:40:50;;;;;;;;;;;13.80;99.90;14.00;100160.00;;;;342781;28;92161;-81
2022/04/30 00:41:01;;;;;;;;;;;13.80;99.90;13.90;100155.00;;;;340285;28;93948;-81
2022/04/30 00:41:14;;;;;;;;;;;13.80;99.90;14.00;100150.00;;;;343866;28;95104;-81
2022/04/30 00:41:26;;;;;;;;;;;13.80;99.90;13.90;100150.00;;;;343006;28;93706;-81
2022/04/30 00:41:41;;;;;;;;;;;13.80;99.90;14.00;100152.00;;;;342852;28;92006;-81
2022/04/30 00:41:53;;;;;;;;;;;13.70;99.90;14.10;100151.00;;;;340456;28;93818;-81
2022/04/30 00:42:05;;;;;;;;;;;13.70;99.90;13.90;100152.00;;;;341613;28;90269;-81
2022/04/30 00:42:17;;;;;;;;;;;13.70;99.90;13.90;100151.00;;;;349649;28;11314;-81
2022/04/30 00:42:28;;;;;;;;;;;13.70;99.90;14.00;100151.00;;;;347306;28;75816;-81
2022/04/30 00:42:40;;;;;;;;;;;13.80;99.90;14.10;100158.00;;;;348203;28;77223;-81
2022/04/30 00:42:52;;;;;;;;;;;13.80;99.90;14.10;100158.00;;;;343906;28;92189;-81
2022/04/30 00:43:04;;;;;;;;;;;13.80;99.90;14.10;100157.00;;;;343183;28;93542;-81
2022/04/30 00:43:16;;;;;;;;;;;13.80;99.90;14.00;100154.00;;;;341485;28;92027;-81
2022/04/30 00:43:28;;;;;;;;;;;13.80;99.90;14.10;100156.00;;;;344438;28;94837;-81
2022/04/30 00:43:47;;;;;;;;;;;13.70;99.90;14.10;100159.00;;;;344298;28;92336;-81
2022/04/30 00:43:59;;;;;;;;;;;13.80;99.90;14.20;100143.00;;;;344477;28;93986;-81
2022/04/30 00:44:11;;;;;;;;;;;13.80;99.90;14.20;100156.00;;;;341788;28;91393;-81
2022/04/30 00:44:22;;;;;;;;;;;13.80;99.90;14.20;100153.00;;;;344374;28;93691;-81
2022/04/30 00:44:34;;;;;;;;;;;13.80;99.90;14.20;100151.00;;;;344186;28;91807;-81
2022/04/30 00:44:47;;;;;;;;;;;13.80;99.90;14.00;100149.00;;;;343159;28;92871;-81
2022/04/30 00:44:59;;;;;;;;;;;13.80;99.90;14.10;100156.00;;;;342922;28;92007;-81
2022/04/30 00:45:11;;;;;;;;;;;13.80;99.90;14.00;100154.00;;;;344444;28;93521;-81
2022/04/30 00:45:23;;;;;;;;;;;13.80;99.90;13.90;100153.00;;;;345632;28;91814;-81
2022/04/30 00:45:35;;;;;;;;;;;13.80;99.90;14.00;100156.00;;;;343152;28;93888;-81
2022/04/30 00:45:47;;;;;;;;;;;13.70;99.90;13.90;100159.00;;;;344227;28;92015;-81
2022/04/30 00:45:59;;;;;;;;;;;13.70;99.90;13.80;100153.00;;;;344522;28;93082;-81
2022/04/30 00:46:14;;;;;;;;;;;13.70;99.90;13.80;100154.00;;;;345632;28;90993;-81
2022/04/30 00:46:28;;;;;;;;;;;13.70;99.90;13.80;100156.00;;;;343061;28;93152;-81
2022/04/30 00:46:39;;;;;;;;;;;13.70;99.90;13.90;100163.00;;;;342901;28;92364;-81
2022/04/30 00:46:51;;;;;;;;;;;13.70;99.90;14.00;100155.00;;;;343024;28;94082;-81
2022/04/30 00:47:03;;;;;;;;;;;13.70;99.90;14.00;100158.00;;;;343986;28;92125;-81
2022/04/30 00:47:21;;;;;;;;;;;13.70;99.90;14.00;100157.00;;;;343928;28;93354;-81
2022/04/30 00:47:33;;;;;;;;;;;13.70;99.90;14.00;100161.00;;;;344334;28;91884;-81
2022/04/30 00:47:45;;;;;;;;;;;13.70;99.90;14.10;100162.00;;;;345921;28;93360;-81
2022/04/30 00:47:57;;;;;;;;;;;13.70;99.90;14.00;100156.00;;;;347077;28;91858;-80
2022/04/30 00:48:09;;;;;;;;;;;13.70;99.90;14.00;100157.00;;;;346426;28;93931;-81
2022/04/30 00:48:21;;;;;;;;;;;13.70;99.90;14.00;100154.00;;;;344320;28;91187;-81
2022/04/30 00:48:33;;;;;;;;;;;13.70;99.90;14.10;100151.00;;;;343014;28;92864;-81
2022/04/30 00:48:45;;;;;;;;;;;13.70;99.90;14.10;100158.00;;;;344846;28;91323;-81
2022/04/30 00:48:58;;;;;;;;;;;13.70;99.90;14.10;100154.00;;;;344513;28;93522;-81
2022/04/30 00:49:10;;;;;;;;;;;13.70;99.90;14.00;100163.00;;;;345778;28;91164;-81
2022/04/30 00:49:21;;;;;;;;;;;13.70;99.90;14.00;100158.00;;;;345925;28;93505;-81
2022/04/30 00:49:33;;;;;;;;;;;13.70;99.90;14.10;100157.00;;;;345701;28;91982;-81
2022/04/30 00:49:48;;;;;;;;;;;13.70;99.90;14.10;100154.00;;;;345915;28;93193;-81
2022/04/30 00:50:00;;;;;;;;;;;13.70;99.90;14.10;100148.00;;;;348426;27;91902;-81
2022/04/30 00:50:14;;;;;;;;;;;13.70;99.90;14.10;100151.00;;;;344058;28;79335;-81
2022/04/30 00:50:27;;;;;;;;;;;13.70;99.90;14.00;100163.00;;;;345629;28;91127;-81
2022/04/30 00:50:38;;;;;;;;;;;13.80;99.90;14.00;100157.00;;;;344966;28;92853;-81
2022/04/30 00:50:50;;;;;;;;;;;13.80;99.90;14.00;100151.00;;;;344206;28;92220;-81
2022/04/30 00:51:02;;;;;;;;;;;13.80;99.90;14.00;100156.00;;;;344475;28;94152;-80
2022/04/30 00:51:15;;;;;;;;;;;13.70;99.90;14.00;100153.00;;;;340128;28;92083;-81
2022/04/30 00:51:28;;;;;;;;;;;13.70;99.90;14.10;100159.00;;;;344350;28;96327;-80
2022/04/30 00:51:39;;;;;;;;;;;13.80;99.90;14.00;100160.00;;;;343079;28;91917;-80
2022/04/30 00:51:51;;;;;;;;;;;13.70;99.90;14.00;100154.00;;;;344488;28;93805;-81
2022/04/30 00:52:03;;;;;;;;;;;13.70;99.90;14.10;100149.00;;;;345259;28;91929;-81
2022/04/30 00:52:16;;;;;;;;;;;13.70;99.90;14.10;100148.00;;;;343103;28;93847;-81
2022/04/30 00:52:28;;;;;;;;;;;13.70;99.90;14.00;100153.00;;;;341548;28;91186;-81
2022/04/30 00:52:41;;;;;;;;;;;13.80;99.90;13.90;100157.00;;;;344495;28;94498;-81
2022/04/30 00:52:53;;;;;;;;;;;13.70;99.90;14.10;100152.00;;;;340771;28;91230;-80
2022/04/30 00:53:05;;;;;;;;;;;13.70;99.90;14.10;100155.00;;;;343264;28;93481;-80
2022/04/30 00:53:19;;;;;;;;;;;13.80;99.90;14.10;100153.00;;;;344147;28;92150;-81
2022/04/30 00:53:31;;;;;;;;;;;13.80;99.90;14.10;100154.00;;;;344491;28;93874;-81
2022/04/30 00:53:50;;;;;;;;;;;13.80;99.90;14.10;100152.00;;;;344318;28;91835;-82
2022/04/30 00:54:02;;;;;;;;;;;13.70;99.90;14.00;100148.00;;;;343148;28;93515;-81
2022/04/30 00:54:14;;;;;;;;;;;13.70;99.90;14.00;100153.00;;;;340184;28;91948;-81
2022/04/30 00:54:26;;;;;;;;;;;13.70;99.90;14.10;100152.00;;;;344535;28;94001;-80
2022/04/30 00:54:38;;;;;;;;;;;13.70;99.90;14.10;100152.00;;;;344321;28;90324;-81
2022/04/30 00:54:49;;;;;;;;;;;13.70;99.90;14.10;100153.00;;;;341711;28;91916;-81
2022/04/30 00:55:06;;;;;;;;;;;13.70;99.90;14.10;100155.00;;;;345656;28;91813;-80
2022/04/30 00:55:21;;;;;;;;;;;13.70;99.90;14.00;100156.00;;;;345775;28;93620;-81
2022/04/30 00:55:33;;;;;;;;;;;13.80;99.90;14.10;100157.00;;;;344216;28;91696;-81
2022/04/30 00:55:45;;;;;;;;;;;13.70;99.90;14.00;100153.00;;;;344534;28;93768;-81
2022/04/30 00:55:57;;;;;;;;;;;13.70;99.90;14.00;100152.00;;;;348142;28;13684;-81
2022/04/30 00:56:11;;;;;;;;;;;13.80;99.90;14.10;100149.00;;;;348784;28;11040;-80
2022/04/30 00:56:28;;;;;;;;;;;13.70;99.90;14.00;100152.00;;;;350849;28;11429;-81
2022/04/30 00:56:52;;;;;;;;;;;13.70;99.90;14.00;100154.00;;;;346149;28;93679;-81
2022/04/30 00:57:05;;;;;;;;;;;13.80;99.90;14.00;100149.00;;;;344188;28;91270;-81
2022/04/30 00:57:18;;;;;;;;;;;13.70;99.90;14.10;100157.00;;;;345878;28;93500;-81
2022/04/30 00:57:31;;;;;;;;;;;13.70;99.90;14.00;100152.00;;;;346958;28;92690;-81
2022/04/30 00:57:43;;;;;;;;;;;13.70;99.90;14.10;100150.00;;;;344437;28;92490;-81
2022/04/30 00:57:55;;;;;;;;;;;13.70;99.90;14.00;100147.00;;;;343287;28;92116;-80
2022/04/30 00:58:07;;;;;;;;;;;13.70;99.90;14.00;100153.00;;;;345832;28;93461;-81
2022/04/30 00:58:20;;;;;;;;;;;13.70;99.90;13.90;100152.00;;;;344261;28;91929;-81
2022/04/30 00:58:32;;;;;;;;;;;13.70;99.90;13.90;100154.00;;;;344506;28;93629;-81
2022/04/30 00:58:47;;;;;;;;;;;13.70;99.90;13.70;100153.00;;;;345605;28;91990;-81
2022/04/30 00:59:04;;;;;;;;;;;13.70;99.90;13.80;100153.00;;;;343165;28;93218;-81
2022/04/30 00:59:17;;;;;;;;;;;13.60;99.90;13.90;100146.00;;;;345215;28;91216;-80
2022/04/30 00:59:30;;;;;;;;;;;13.70;99.90;13.80;100150.00;;;;345789;28;94636;-81
2022/04/30 00:59:42;;;;;;;;;;;13.70;99.90;13.80;100145.00;;;;342946;28;91825;-80
2022/04/30 00:59:59;;;;;;;;;;;13.60;99.90;13.90;100148.00;;;;342505;28;93956;-81
2022/04/30 01:00:12;;;;;;;;;;;13.60;99.90;14.00;100150.00;;;;344020;28;92124;-80
2022/04/30 01:00:26;;;;;;;;;;;13.70;99.90;14.00;100149.00;;;;344463;28;96655;-81
2022/04/30 01:00:40;;;;;;;;;;;13.60;99.90;14.00;100157.00;;;;342959;28;91926;-81
2022/04/30 01:00:52;;;;;;;;;;;13.60;99.90;13.90;100150.00;;;;343088;28;93464;-81
2022/04/30 01:01:04;;;;;;;;;;;13.70;99.90;13.90;100149.00;;;;347051;28;91970;-81
2022/04/30 01:01:16;;;;;;;;;;;13.70;99.90;13.80;100147.00;;;;344161;28;94746;-81
2022/04/30 01:01:29;;;;;;;;;;;13.60;99.90;13.80;100145.00;;;;342900;28;85690;-81
2022/04/30 01:01:41;;;;;;;;;;;13.60;99.90;13.90;100153.00;;;;345911;28;93061;-81
2022/04/30 01:01:57;;;;;;;;;;;13.60;99.90;14.00;100156.00;;;;341521;28;92043;-81
2022/04/30 01:02:10;;;;;;;;;;;13.60;99.90;14.00;100153.00;;;;345096;28;93604;-81
2022/04/30 01:02:22;;;;;;;;;;;13.60;99.90;14.00;100150.00;;;;344688;28;92037;-81
2022/04/30 01:02:34;;;;;;;;;;;13.60;99.90;14.00;100149.00;;;;343100;28;93321;-81
2022/04/30 01:02:46;;;;;;;;;;;13.60;99.90;14.00;100148.00;;;;344296;28;91972;-80
2022/04/30 01:02:58;;;;;;;;;;;13.60;99.90;13.90;100151.00;;;;344616;28;96055;-80
2022/04/30 01:03:11;;;;;;;;;;;13.60;99.90;13.90;100150.00;;;;345984;28;92115;-81
2022/04/30 01:03:24;;;;;;;;;;;13.60;99.90;13.90;100146.00;;;;345830;28;93750;-81
2022/04/30 01:03:36;;;;;;;;;;;13.60;99.90;14.00;100142.00;;;;344155;28;91418;-81
2022/04/30 01:03:48;;;;;;;;;;;13.60;99.90;13.80;100141.00;;;;347281;28;94177;-81
2022/04/30 01:04:00;;;;;;;;;;;13.60;99.90;13.70;100146.00;;;;344275;28;91992;-81
2022/04/30 01:04:13;;;;;;;;;;;13.60;99.90;13.70;100149.00;;;;344473;28;93946;-81
2022/04/30 01:04:25;;;;;;;;;;;13.60;99.90;13.80;100151.00;;;;345560;28;92117;-81
2022/04/30 01:04:37;;;;;;;;;;;13.60;99.90;13.80;100139.00;;;;345572;28;93671;-81
2022/04/30 01:04:49;;;;;;;;;;;13.60;99.90;13.70;100143.00;;;;344221;28;91879;-81
2022/04/30 01:05:03;;;;;;;;;;;13.60;99.90;13.70;100147.00;;;;345766;28;91247;-81
2022/04/30 01:05:14;;;;;;;;;;;13.60;99.90;13.80;100147.00;;;;343743;28;92071;-81
2022/04/30 01:05:27;;;;;;;;;;;13.50;99.90;13.80;100141.00;;;;340363;28;95042;-81
2022/04/30 01:05:39;;;;;;;;;;;13.60;99.90;13.70;100149.00;;;;343841;28;91238;-81
2022/04/30 01:05:51;;;;;;;;;;;13.50;99.90;13.80;100145.00;;;;344605;28;92613;-81
2022/04/30 01:06:04;;;;;;;;;;;13.50;99.90;13.90;100141.00;;;;342731;28;92054;-82
2022/04/30 01:06:15;;;;;;;;;;;13.50;99.90;13.90;100146.00;;;;344502;28;93517;-81
2022/04/30 01:06:48;;;;;;;;;;;13.50;99.90;13.90;100151.00;;;;341518;28;91946;-80
2022/04/30 01:07:06;;;;;;;;;;;13.60;99.90;13.90;100143.00;;;;343182;28;93425;-81
2022/04/30 01:07:18;;;;;;;;;;;13.60;99.90;14.00;100142.00;;;;340208;28;92017;-81
2022/04/30 01:07:30;;;;;;;;;;;13.60;99.90;13.80;100137.00;;;;344346;28;95469;-81
2022/04/30 01:07:42;;;;;;;;;;;13.60;99.90;13.80;100147.00;;;;345675;28;91833;-81
2022/04/30 01:07:53;;;;;;;;;;;13.60;99.90;13.70;100142.00;;;;343206;28;93853;-81
2022/04/30 01:08:05;;;;;;;;;;;13.60;99.90;13.60;100146.00;;;;342770;28;91505;-81
2022/04/30 01:08:18;;;;;;;;;;;13.50;99.90;13.70;100141.00;;;;342421;28;92417;-81
2022/04/30 01:08:30;;;;;;;;;;;13.50;99.90;13.80;100141.00;;;;342847;28;91934;-81
2022/04/30 01:08:41;;;;;;;;;;;13.50;99.90;13.80;100137.00;;;;340389;28;93787;-81
2022/04/30 01:08:54;;;;;;;;;;;13.50;99.90;13.90;100135.00;;;;342939;28;91979;-81
2022/04/30 01:09:06;;;;;;;;;;;13.50;99.90;13.90;100142.00;;;;343126;28;92653;-81
2022/04/30 01:09:31;;;;;;;;;;;13.50;99.90;13.90;100145.00;;;;342760;28;91877;-80
2022/04/30 01:09:43;;;;;;;;;;;13.50;99.90;13.80;100138.00;;;;345898;28;93717;-80
2022/04/30 01:09:56;;;;;;;;;;;13.60;99.90;13.80;100138.00;;;;345586;28;91189;-81
2022/04/30 01:10:08;;;;;;;;;;;13.60;99.90;13.80;100142.00;;;;345784;28;95079;-81
2022/04/30 01:10:19;;;;;;;;;;;13.50;99.90;13.90;100139.00;;;;342991;28;90348;-81
2022/04/30 01:10:32;;;;;;;;;;;13.50;99.90;13.90;100148.00;;;;341839;28;93255;-80
2022/04/30 01:10:44;;;;;;;;;;;13.60;99.90;13.90;100141.00;;;;342930;28;91072;-81
2022/04/30 01:11:03;;;;;;;;;;;13.60;99.90;13.90;100145.00;;;;343084;28;96531;-80
2022/04/30 01:11:15;;;;;;;;;;;13.60;99.90;13.80;100137.00;;;;343101;28;92091;-81
2022/04/30 01:11:27;;;;;;;;;;;13.60;99.90;13.80;100139.00;;;;341753;28;93736;-81
2022/04/30 01:11:39;;;;;;;;;;;13.50;99.90;13.80;100141.00;;;;343774;28;92008;-81
2022/04/30 01:12:02;;;;;;;;;;;13.50;99.90;13.70;100143.00;;;;343101;28;94698;-81
2022/04/30 01:12:14;;;;;;;;;;;13.50;99.90;13.80;100146.00;;;;342528;28;91245;-81
2022/04/30 01:12:27;;;;;;;;;;;13.50;99.90;13.70;100141.00;;;;343266;28;92463;-81
2022/04/30 01:12:39;;;;;;;;;;;13.50;99.90;13.50;100146.00;;;;342942;28;90428;-81
2022/04/30 01:12:52;;;;;;;;;;;13.50;99.90;13.70;100141.00;;;;345909;28;92800;-81
2022/04/30 01:13:04;;;;;;;;;;;13.50;99.90;13.70;100145.00;;;;345208;28;92062;-81
2022/04/30 01:13:16;;;;;;;;;;;13.50;99.90;13.70;100146.00;;;;345694;28;95971;-81
2022/04/30 01:13:28;;;;;;;;;;;13.50;99.90;13.70;100144.00;;;;345631;28;90997;-81
2022/04/30 01:13:40;;;;;;;;;;;13.50;99.90;13.60;100140.00;;;;344517;28;92916;-81
2022/04/30 01:13:52;;;;;;;;;;;13.50;99.90;13.70;100142.00;;;;342979;28;91849;-81
2022/04/30 01:14:04;;;;;;;;;;;13.50;99.90;13.60;100139.00;;;;345058;28;93418;-81
2022/04/30 01:14:17;;;;;;;;;;;13.50;99.90;13.60;100134.00;;;;347812;27;92138;-81
2022/04/30 01:14:31;;;;;;;;;;;13.50;99.90;13.70;100139.00;;;;345856;28;95023;-80
2022/04/30 01:14:44;;;;;;;;;;;13.50;99.90;13.70;100137.00;;;;345574;28;91247;-80
2022/04/30 01:14:56;;;;;;;;;;;13.50;99.90;13.70;100135.00;;;;344535;28;93015;-80
2022/04/30 01:15:08;;;;;;;;;;;13.50;99.90;13.60;100136.00;;;;344171;28;91160;-81
2022/04/30 01:15:20;;;;;;;;;;;13.50;99.90;13.50;100139.00;;;;346964;28;93562;-81
2022/04/30 01:15:32;;;;;;;;;;;13.40;99.90;13.60;100137.00;;;;344223;28;91799;-81
2022/04/30 01:15:43;;;;;;;;;;;13.40;99.90;13.60;100139.00;;;;341618;28;93478;-80
2022/04/30 01:15:58;;;;;;;;;;;13.40;99.90;13.60;100141.00;;;;345702;28;91880;-81
2022/04/30 01:16:11;;;;;;;;;;;13.40;99.90;13.60;100142.00;;;;345787;28;93582;-81
2022/04/30 01:16:23;;;;;;;;;;;13.40;99.90;13.50;100142.00;;;;341576;28;92072;-81
2022/04/30 01:16:35;;;;;;;;;;;13.40;99.90;13.50;100140.00;;;;345746;28;97505;-81
2022/04/30 01:16:47;;;;;;;;;;;13.40;99.90;13.60;100139.00;;;;342879;28;91305;-81
2022/04/30 01:16:59;;;;;;;;;;;13.40;99.90;13.70;100141.00;;;;341837;28;92773;-81
2022/04/30 01:17:11;;;;;;;;;;;13.40;99.90;13.70;100141.00;;;;343274;28;91965;-82
2022/04/30 01:17:23;;;;;;;;;;;13.40;99.90;13.70;100142.00;;;;342876;28;95410;-80
2022/04/30 01:17:37;;;;;;;;;;;13.40;99.90;13.70;100137.00;;;;346306;28;92291;-81
2022/04/30 01:17:49;;;;;;;;;;;13.40;99.90;13.60;100135.00;;;;343201;28;93473;-80
2022/04/30 01:18:00;;;;;;;;;;;13.40;99.90;13.50;100147.00;;;;345630;28;91724;-81
2022/04/30 01:18:12;;;;;;;;;;;13.40;99.90;13.40;100134.00;;;;344109;28;93800;-81
2022/04/30 01:18:27;;;;;;;;;;;13.40;99.90;13.40;100134.00;;;;342859;28;91775;-81
2022/04/30 01:18:38;;;;;;;;;;;13.30;99.90;13.40;100140.00;;;;344481;28;92322;-80
2022/04/30 01:18:50;;;;;;;;;;;13.30;99.90;13.50;100133.00;;;;344176;28;91467;-81
2022/04/30 01:19:02;;;;;;;;;;;13.30;99.90;13.60;100137.00;;;;345755;28;92998;-81
2022/04/30 01:19:18;;;;;;;;;;;13.30;99.90;13.50;100136.00;;;;344038;28;92080;-80
2022/04/30 01:19:32;;;;;;;;;;;13.30;99.90;13.60;100136.00;;;;344420;28;93698;-81
2022/04/30 01:19:43;;;;;;;;;;;13.30;99.90;13.70;100138.00;;;;348313;27;91947;-80
2022/04/30 01:19:55;;;;;;;;;;;13.30;99.90;13.60;100136.00;;;;344469;28;94921;-81
2022/04/30 01:20:08;;;;;;;;;;;13.30;99.90;13.60;100141.00;;;;345981;28;92202;-81
2022/04/30 01:20:19;;;;;;;;;;;13.30;99.90;13.60;100137.00;;;;344839;28;96553;-81
2022/04/30 01:20:31;;;;;;;;;;;13.30;99.90;13.60;100136.00;;;;341532;28;92059;-81
2022/04/30 01:20:46;;;;;;;;;;;13.30;99.90;13.60;100132.00;;;;340378;28;93842;-81
2022/04/30 01:21:01;;;;;;;;;;;13.30;99.90;13.70;100136.00;;;;344326;28;91210;-81
2022/04/30 01:21:13;;;;;;;;;;;13.30;99.90;13.70;100126.00;;;;348419;27;93869;-81
2022/04/30 01:21:24;;;;;;;;;;;13.30;99.90;13.70;100134.00;;;;345511;28;91846;-81
2022/04/30 01:21:36;;;;;;;;;;;13.30;99.90;13.70;100130.00;;;;345932;28;92848;-82
2022/04/30 01:21:50;;;;;;;;;;;13.30;99.90;13.70;100138.00;;;;345687;28;91977;-80
2022/04/30 01:22:23;;;;;;;;;;;13.30;99.90;13.70;100139.00;;;;348631;27;93858;-81
2022/04/30 01:22:53;;;;;;;;;;;13.40;99.90;13.60;100138.00;;;;338578;28;91759;-80
2022/04/30 01:23:05;;;;;;;;;;;13.40;99.90;13.50;100136.00;;;;343260;28;93931;-81
2022/04/30 01:23:17;;;;;;;;;;;13.30;99.90;13.60;100129.00;;;;342766;28;92209;-81
2022/04/30 01:23:28;;;;;;;;;;;13.30;99.90;13.50;100130.00;;;;344338;28;94922;-81
2022/04/30 01:23:41;;;;;;;;;;;13.30;99.90;13.60;100132.00;;;;341218;28;91268;-81
2022/04/30 01:23:52;;;;;;;;;;;13.30;99.90;13.60;100128.00;;;;344513;28;93100;-81
2022/04/30 01:24:04;;;;;;;;;;;13.30;99.90;13.50;100131.00;;;;345467;28;91865;-81
2022/04/30 01:24:25;;;;;;;;;;;13.30;99.90;13.40;100129.00;;;;344416;28;96667;-81
2022/04/30 01:24:37;;;;;;;;;;;13.30;99.90;13.50;100139.00;;;;344277;28;91748;-81
2022/04/30 01:24:49;;;;;;;;;;;13.30;99.90;13.40;100127.00;;;;344146;28;95253;-81
2022/04/30 01:25:02;;;;;;;;;;;13.30;99.90;13.50;100131.00;;;;345519;28;92091;-81
2022/04/30 01:25:13;;;;;;;;;;;13.30;99.90;13.60;100127.00;;;;347318;28;91873;-81
2022/04/30 01:25:25;;;;;;;;;;;13.30;99.90;13.60;100122.00;;;;347061;28;91771;-81
2022/04/30 01:25:37;;;;;;;;;;;13.30;99.90;13.60;100120.00;;;;345718;28;95615;-81
2022/04/30 01:25:49;;;;;;;;;;;13.30;99.90;13.50;100119.00;;;;344343;28;91453;-80
2022/04/30 01:26:01;;;;;;;;;;;13.30;99.90;13.60;100127.00;;;;342933;28;93410;-81
2022/04/30 01:26:13;;;;;;;;;;;13.30;99.90;13.50;100130.00;;;;344993;28;91981;-80
2022/04/30 01:26:27;;;;;;;;;;;13.30;99.90;13.50;100133.00;;;;344423;28;93557;-81
2022/04/30 01:26:38;;;;;;;;;;;13.30;99.90;13.50;100135.00;;;;344193;28;91979;-81
2022/04/30 01:26:53;;;;;;;;;;;13.30;99.90;13.50;100134.00;;;;344291;28;94727;-81
2022/04/30 01:27:05;;;;;;;;;;;13.20;99.90;13.50;100128.00;;;;344183;28;91711;-81
2022/04/30 01:27:17;;;;;;;;;;;13.30;99.90;13.50;100130.00;;;;347158;28;94253;-81